createdAt,value
2022-11-16T00:02:13.762Z,97703.06
2022-11-16T00:04:40.556Z,97697.06
2022-11-16T00:07:07.591Z,97693.69
2022-11-16T00:09:34.326Z,97694.50
2022-11-16T00:12:03.990Z,97689.34
2022-11-16T00:14:33.061Z,97679.94
2022-11-16T00:17:00.437Z,97686.75
2022-11-16T00:19:28.035Z,97684.97
2022-11-16T00:21:55.031Z,97684.06
2022-11-16T00:24:23.356Z,97684.97
2022-11-16T00:26:50.727Z,97683.19
2022-11-16T00:29:20.167Z,97684.91
2022-11-16T00:31:47.500Z,97678.91
2022-11-16T00:34:14.542Z,97681.50
2022-11-16T00:36:41.225Z,97676.34
2022-11-16T00:39:10.176Z,97675.53
2022-11-16T00:41:36.697Z,97667.72
2022-11-16T00:44:03.239Z,97671.19
2022-11-16T00:46:29.771Z,97668.59
2022-11-16T00:48:56.337Z,97672.78
2022-11-16T00:51:22.853Z,97662.47
2022-11-16T00:53:49.379Z,97665.03
2022-11-16T00:56:15.941Z,97663.31
2022-11-16T00:58:42.454Z,97662.47
2022-11-16T01:01:11.262Z,97660.78
2022-11-16T01:03:39.475Z,97656.50
2022-11-16T01:06:08.990Z,97647.13
2022-11-16T01:08:37.239Z,97648.91
2022-11-16T01:11:43.462Z,97648.97
2022-11-16T01:14:10.687Z,97637.84
2022-11-16T01:16:37.687Z,97645.66
2022-11-16T01:19:05.316Z,97635.41
2022-11-16T01:21:32.035Z,97631.97
2022-11-16T01:23:58.570Z,97636.31
2022-11-16T01:26:25.533Z,97630.31
2022-11-16T01:28:52.476Z,97633.78
2022-11-16T01:31:19.429Z,97634.66
2022-11-16T01:33:46.014Z,97630.38
2022-11-16T01:36:17.329Z,97634.66
2022-11-16T01:38:46.017Z,97631.25
2022-11-16T01:41:18.239Z,97631.31
2022-11-16T01:44:02.959Z,97621.97
2022-11-16T01:46:30.718Z,97618.56
2022-11-16T01:49:11.963Z,97615.06
2022-11-16T01:51:42.423Z,97614.25
2022-11-16T01:54:11.773Z,97604.81
2022-11-16T01:56:39.723Z,97603.16
2022-11-16T01:59:06.688Z,97598.91
2022-11-16T02:01:33.291Z,97598.00
2022-11-16T02:03:59.879Z,97595.47
2022-11-16T02:06:26.346Z,97598.84
2022-11-16T02:09:43.130Z,97595.47
2022-11-16T02:12:43.590Z,97593.78
2022-11-16T02:15:25.551Z,97587.81
2022-11-16T02:18:00.707Z,97587.88
2022-11-16T02:20:51.526Z,97584.44
2022-11-16T02:23:52.350Z,97579.28
2022-11-16T02:26:39.435Z,97575.91
2022-11-16T02:29:19.059Z,97576.78
2022-11-16T02:31:59.434Z,97563.03
2022-11-16T02:34:31.135Z,97565.69
2022-11-16T02:37:01.866Z,97562.25
2022-11-16T02:39:31.879Z,97557.09
2022-11-16T02:42:01.715Z,97557.16
2022-11-16T02:44:35.699Z,97551.19
2022-11-16T02:47:08.395Z,97552.84
2022-11-16T02:49:40.363Z,97538.31
2022-11-16T02:52:08.929Z,97538.38
2022-11-16T02:54:35.490Z,97533.22
2022-11-16T02:57:04.969Z,97526.31
2022-11-16T02:59:55.175Z,97531.47
2022-11-16T03:02:35.446Z,97521.16
2022-11-16T03:05:08.720Z,97522.84
2022-11-16T03:07:45.024Z,97522.91
2022-11-16T03:10:32.234Z,97518.63
2022-11-16T03:13:02.300Z,97515.22
2022-11-16T03:15:30.299Z,97514.41
2022-11-16T03:17:59.527Z,97513.53
2022-11-16T03:20:30.254Z,97510.06
2022-11-16T03:23:10.363Z,97506.59
2022-11-16T03:25:44.979Z,97512.63
2022-11-16T03:28:29.265Z,97507.47
2022-11-16T03:31:01.029Z,97504.16
2022-11-16T03:33:29.854Z,97505.03
2022-11-16T03:36:22.355Z,97498.22
2022-11-16T03:38:50.955Z,97496.47
2022-11-16T03:41:20.167Z,97504.16
2022-11-16T03:43:49.335Z,97499.00
2022-11-16T03:46:17.559Z,97497.31
2022-11-16T03:48:44.157Z,97487.00
2022-11-16T03:51:11.416Z,97481.84
2022-11-16T03:53:38.034Z,97481.91
2022-11-16T03:56:04.799Z,97485.31
2022-11-16T03:58:31.871Z,97481.84
2022-11-16T04:00:58.789Z,97477.59
2022-11-16T04:03:25.339Z,97480.25
2022-11-16T04:06:10.613Z,97481.13
2022-11-16T04:08:55.428Z,97481.97
2022-11-16T04:11:41.551Z,97481.97
2022-11-16T04:14:32.593Z,97471.66
2022-11-16T04:17:17.915Z,97461.38
2022-11-16T04:20:03.131Z,97463.06
2022-11-16T04:22:53.120Z,97458.00
2022-11-16T04:25:24.555Z,97470.13
2022-11-16T04:28:11.051Z,97468.41
2022-11-16T04:30:56.441Z,97462.38
2022-11-16T04:33:41.698Z,97467.56
2022-11-16T04:36:27.086Z,97466.75
2022-11-16T04:38:53.693Z,97458.28
2022-11-16T04:41:38.804Z,97461.81
2022-11-16T04:44:05.485Z,97451.75
2022-11-16T04:46:50.443Z,97451.97
2022-11-16T04:49:17.030Z,97450.41
2022-11-16T04:51:43.567Z,97442.78
2022-11-16T04:54:10.073Z,97440.41
2022-11-16T04:56:36.650Z,97442.19
2022-11-16T04:59:03.405Z,97438.81
2022-11-16T05:01:48.337Z,97433.84
2022-11-16T05:04:14.897Z,97432.19
2022-11-16T05:06:41.449Z,97434.03
2022-11-16T05:09:08.132Z,97427.34
2022-11-16T05:11:34.712Z,97429.06
2022-11-16T05:14:02.472Z,97432.59
2022-11-16T05:16:29.848Z,97425.03
2022-11-16T05:19:14.657Z,97427.66
2022-11-16T05:21:41.168Z,97422.75
2022-11-16T05:24:26.324Z,97428.78
2022-11-16T05:26:52.883Z,97424.63
2022-11-16T05:29:19.387Z,97422.16
2022-11-16T05:31:45.926Z,97418.75
2022-11-16T05:34:12.983Z,97411.94
2022-11-16T05:36:39.567Z,97414.44
2022-11-16T05:39:06.878Z,97415.19
2022-11-16T05:41:33.608Z,97414.34
2022-11-16T05:44:00.114Z,97416.00
2022-11-16T05:46:26.596Z,97420.28
2022-11-16T05:48:53.166Z,97422.75
2022-11-16T05:51:19.963Z,97422.75
2022-11-16T05:53:46.596Z,97420.09
2022-11-16T05:56:15.117Z,97406.50
2022-11-16T05:58:42.413Z,97403.81
2022-11-16T06:01:08.983Z,97408.97
2022-11-16T06:03:36.454Z,97403.81
2022-11-16T06:06:05.164Z,97405.53
2022-11-16T06:08:32.275Z,97402.84
2022-11-16T06:11:04.343Z,97411.28
2022-11-16T06:13:31.645Z,97404.34
2022-11-16T06:15:58.858Z,97405.22
2022-11-16T06:18:25.533Z,97409.50
2022-11-16T06:20:52.337Z,97405.19
2022-11-16T06:23:19.160Z,97400.88
2022-11-16T06:25:46.094Z,97397.41
2022-11-16T06:28:13.192Z,97396.53
2022-11-16T06:30:40.682Z,97393.88
2022-11-16T06:33:08.095Z,97390.34
2022-11-16T06:35:34.680Z,97385.94
2022-11-16T06:38:01.239Z,97381.47
2022-11-16T06:40:27.748Z,97389.03
2022-11-16T06:42:54.327Z,97382.00
2022-11-16T06:45:20.853Z,97378.38
2022-11-16T06:47:47.440Z,97378.19
2022-11-16T06:50:14.039Z,97366.00
2022-11-16T06:52:40.564Z,97365.00
2022-11-16T06:55:07.418Z,97367.44
2022-11-16T06:57:35.643Z,97363.16
2022-11-16T07:00:02.472Z,97371.59
2022-11-16T07:02:28.979Z,97369.91
2022-11-16T07:05:00.603Z,97374.16
2022-11-16T07:07:29.884Z,97384.47
2022-11-16T07:09:56.449Z,97380.13
2022-11-16T07:12:23.039Z,97382.78
2022-11-16T07:14:49.622Z,97378.47
2022-11-16T07:17:16.179Z,97368.97
2022-11-16T07:19:42.719Z,97371.47
2022-11-16T07:22:09.230Z,97376.63
2022-11-16T07:24:35.793Z,97378.28
2022-11-16T07:27:02.320Z,97377.41
2022-11-16T07:29:29.331Z,97379.06
2022-11-16T07:31:55.906Z,97384.09
2022-11-16T07:34:22.430Z,97382.44
2022-11-16T07:36:48.967Z,97379.78
2022-11-16T07:39:15.528Z,97378.88
2022-11-16T07:41:45.287Z,97378.00
2022-11-16T07:44:12.375Z,97381.34
2022-11-16T07:46:47.774Z,97389.06
2022-11-16T07:49:16.119Z,97380.50
2022-11-16T07:51:43.177Z,97378.69
2022-11-16T07:54:14.605Z,97378.69
2022-11-16T07:56:41.978Z,97378.69
2022-11-16T07:59:08.944Z,97382.06
2022-11-16T08:01:35.902Z,97374.34
2022-11-16T08:04:02.798Z,97378.59
2022-11-16T08:06:31.435Z,97370.81
2022-11-16T08:08:58.901Z,97367.25
2022-11-16T08:11:25.712Z,97371.53
2022-11-16T08:13:52.319Z,97365.47
2022-11-16T08:16:21.511Z,97361.16
2022-11-16T08:18:48.077Z,97365.34
2022-11-16T08:21:16.389Z,97350.72
2022-11-16T08:23:44.953Z,97356.53
2022-11-16T08:26:16.638Z,97346.22
2022-11-16T08:28:45.047Z,97336.78
2022-11-16T08:31:14.546Z,97342.81
2022-11-16T08:33:41.422Z,97346.94
2022-11-16T08:36:13.978Z,97345.13
2022-11-16T08:38:41.252Z,97340.72
2022-11-16T08:41:07.816Z,97345.72
2022-11-16T08:43:35.867Z,97348.09
2022-11-16T08:46:03.182Z,97352.28
2022-11-16T08:48:29.835Z,97344.44
2022-11-16T08:51:17.009Z,97348.53
2022-11-16T08:53:44.611Z,97349.38
2022-11-16T08:56:15.382Z,97351.00
2022-11-16T08:58:44.248Z,97345.66
2022-11-16T09:01:16.419Z,97347.25
2022-11-16T09:03:43.343Z,97349.56
2022-11-16T09:06:11.193Z,97352.13
2022-11-16T09:08:39.707Z,97351.91
2022-11-16T09:11:12.557Z,97345.78
2022-11-16T09:13:39.924Z,97349.13
2022-11-16T09:16:06.671Z,97350.69
2022-11-16T09:18:34.679Z,97348.91
2022-11-16T09:21:01.612Z,97349.69
2022-11-16T09:23:28.287Z,97344.41
2022-11-16T09:25:55.319Z,97342.53
2022-11-16T09:28:22.866Z,97334.66
2022-11-16T09:30:51.079Z,97335.50
2022-11-16T09:33:18.174Z,97331.13
2022-11-16T09:35:45.107Z,97325.81
2022-11-16T09:38:14.843Z,97331.00
2022-11-16T09:40:47.552Z,97321.31
2022-11-16T09:43:26.090Z,97317.69
2022-11-16T09:46:03.327Z,97318.38
2022-11-16T09:48:35.665Z,97316.50
2022-11-16T09:51:08.260Z,97313.84
2022-11-16T09:53:57.360Z,97321.50
2022-11-16T09:56:25.996Z,97318.91
2022-11-16T09:59:18.369Z,97306.00
2022-11-16T10:01:52.578Z,97301.56
2022-11-16T10:04:28.306Z,97309.16
2022-11-16T10:07:02.961Z,97301.25
2022-11-16T10:09:30.553Z,97298.44
2022-11-16T10:12:09.325Z,97288.13
2022-11-16T10:15:01.476Z,97281.06
2022-11-16T10:17:43.027Z,97277.50
2022-11-16T10:20:30.922Z,97273.97
2022-11-16T10:23:27.644Z,97272.88
2022-11-16T10:26:03.291Z,97275.47
2022-11-16T10:29:05.755Z,97265.09
2022-11-16T10:31:51.565Z,97259.88
2022-11-16T10:34:38.696Z,97242.34
2022-11-16T10:37:08.550Z,97250.00
2022-11-16T10:39:40.347Z,97249.00
2022-11-16T10:42:13.415Z,97255.03
2022-11-16T10:45:03.684Z,97248.25
2022-11-16T10:47:46.822Z,97252.50
2022-11-16T10:50:35.002Z,97253.34
2022-11-16T10:53:01.686Z,97253.19
2022-11-16T10:55:29.115Z,97249.69
2022-11-16T10:58:00.189Z,97249.63
2022-11-16T11:00:52.880Z,97249.53
2022-11-16T11:03:33.712Z,97256.41
2022-11-16T11:06:00.519Z,97251.16
2022-11-16T11:08:31.322Z,97247.59
2022-11-16T11:11:25.189Z,97242.50
2022-11-16T11:14:11.633Z,97245.91
2022-11-16T11:16:38.667Z,97245.06
2022-11-16T11:19:28.042Z,97256.25
2022-11-16T11:22:01.048Z,97253.81
2022-11-16T11:24:45.293Z,97253.97
2022-11-16T11:27:12.416Z,97261.72
2022-11-16T11:29:42.666Z,97258.22
2022-11-16T11:32:23.521Z,97256.56
2022-11-16T11:34:53.936Z,97253.06
2022-11-16T11:37:29.291Z,97250.53
2022-11-16T11:40:17.479Z,97254.88
2022-11-16T11:43:05.173Z,97247.28
2022-11-16T11:45:49.867Z,97241.25
2022-11-16T11:48:36.646Z,97240.50
2022-11-16T11:51:19.371Z,97233.59
2022-11-16T11:53:58.957Z,97230.16
2022-11-16T11:56:27.561Z,97224.09
2022-11-16T11:58:54.730Z,97220.69
2022-11-16T12:01:48.184Z,97215.50
2022-11-16T12:04:28.319Z,97202.69
2022-11-16T12:07:03.535Z,97205.19
2022-11-16T12:09:44.870Z,97209.59
2022-11-16T12:12:17.897Z,97209.66
2022-11-16T12:15:07.969Z,97206.25
2022-11-16T12:18:08.144Z,97206.25
2022-11-16T12:20:52.898Z,97204.50
2022-11-16T12:23:37.777Z,97213.84
2022-11-16T12:26:23.618Z,97205.19
2022-11-16T12:29:05.127Z,97192.13
2022-11-16T12:31:37.736Z,97198.81
2022-11-16T12:34:18.299Z,97189.94
2022-11-16T12:37:00.679Z,97185.53
2022-11-16T12:39:35.731Z,97191.38
2022-11-16T12:42:29.685Z,97196.47
2022-11-16T12:45:40.717Z,97196.47
2022-11-16T12:48:31.745Z,97191.22
2022-11-16T12:51:36.833Z,97184.25
2022-11-16T12:54:21.760Z,97180.81
2022-11-16T12:56:59.455Z,97176.50
2022-11-16T12:59:57.491Z,97174.91
2022-11-16T13:02:44.682Z,97173.28
2022-11-16T13:05:20.248Z,97164.88
2022-11-16T13:08:05.468Z,97168.28
2022-11-16T13:10:34.933Z,97159.78
2022-11-16T13:13:35.028Z,97153.78
2022-11-16T13:15:53.737Z,97151.25
2022-11-16T13:18:22.974Z,97154.84
2022-11-16T13:21:16.156Z,97151.41
2022-11-16T13:24:24.358Z,97147.25
2022-11-16T13:27:22.146Z,97142.97
2022-11-16T13:29:53.781Z,97139.75
2022-11-16T13:32:32.194Z,97141.56
2022-11-16T13:35:00.627Z,97141.56
2022-11-16T13:37:39.349Z,97142.38
2022-11-16T13:40:05.816Z,97138.13
2022-11-16T13:42:58.099Z,97133.91
2022-11-16T13:45:52.029Z,97138.22
2022-11-16T13:48:23.734Z,97134.03
2022-11-16T13:50:54.621Z,97138.44
2022-11-16T13:56:13.629Z,97136.91
2022-11-16T13:58:47.022Z,97130.16
2022-11-16T14:01:15.163Z,97126.66
2022-11-16T14:03:43.509Z,97135.25
2022-11-16T14:06:13.002Z,97126.66
2022-11-16T14:08:39.506Z,97131.13
2022-11-16T14:11:46.211Z,97130.25
2022-11-16T14:14:33.665Z,97132.06
2022-11-16T14:17:00.173Z,97131.38
2022-11-16T14:19:52.280Z,97132.13
2022-11-16T14:22:59.768Z,97140.94
2022-11-16T14:25:33.228Z,97131.44
2022-11-16T14:28:17.151Z,97128.88
2022-11-16T14:30:52.843Z,97128.94
2022-11-16T14:33:33.291Z,97133.25
2022-11-16T14:36:03.520Z,97131.69
2022-11-16T14:38:36.646Z,97146.25
2022-11-16T14:41:06.380Z,97134.38
2022-11-16T14:43:40.579Z,97139.63
2022-11-16T14:46:21.967Z,97136.22
2022-11-16T14:48:49.579Z,97138.03
2022-11-16T14:51:24.663Z,97137.25
2022-11-16T14:53:56.734Z,97134.84
2022-11-16T14:56:23.344Z,97125.47
2022-11-16T14:58:57.846Z,97130.66
2022-11-16T15:01:35.731Z,97133.31
2022-11-16T15:04:09.213Z,97129.94
2022-11-16T15:06:42.135Z,97123.13
2022-11-16T15:09:17.302Z,97125.78
2022-11-16T15:12:07.066Z,97127.53
2022-11-16T15:14:39.727Z,97126.78
2022-11-16T15:17:09.075Z,97129.41
2022-11-16T15:19:35.687Z,97122.59
2022-11-16T15:22:04.392Z,97120.94
2022-11-16T15:24:35.260Z,97125.25
2022-11-16T15:27:40.761Z,97123.44
2022-11-16T15:30:36.982Z,97121.75
2022-11-16T15:33:15.167Z,97122.59
2022-11-16T15:35:41.755Z,97111.41
2022-11-16T15:38:24.261Z,97114.78
2022-11-16T15:40:52.592Z,97113.94
2022-11-16T15:43:21.513Z,97112.34
2022-11-16T15:45:49.214Z,97111.50
2022-11-16T15:48:26.571Z,97107.25
2022-11-16T15:51:16.385Z,97099.59
2022-11-16T15:53:44.265Z,97100.50
2022-11-16T15:56:22.467Z,97099.75
2022-11-16T15:58:49.475Z,97095.47
2022-11-16T16:01:16.605Z,97094.66
2022-11-16T16:03:58.725Z,97089.50
2022-11-16T16:06:46.537Z,97089.44
2022-11-16T16:09:38.751Z,97084.34
2022-11-16T16:12:21.667Z,97086.09
2022-11-16T16:14:50.294Z,97080.94
2022-11-16T16:17:28.560Z,97083.59
2022-11-16T16:20:00.994Z,97082.72
2022-11-16T16:22:31.446Z,97087.13
2022-11-16T16:24:58.378Z,97084.53
2022-11-16T16:27:29.108Z,97088.94
2022-11-16T16:29:57.875Z,97085.63
2022-11-16T16:32:27.070Z,97082.34
2022-11-16T16:34:55.724Z,97083.16
2022-11-16T16:37:22.749Z,97089.22
2022-11-16T16:39:49.307Z,97083.59
2022-11-16T16:42:17.390Z,97086.94
2022-11-16T16:44:45.404Z,97086.41
2022-11-16T16:47:12.660Z,97078.59
2022-11-16T16:49:39.446Z,97088.75
2022-11-16T16:52:07.352Z,97080.94
2022-11-16T16:54:33.975Z,97088.63
2022-11-16T16:57:02.373Z,97081.78
2022-11-16T16:59:32.063Z,97084.31
2022-11-16T17:01:59.136Z,97085.16
2022-11-16T17:04:25.748Z,97080.81
2022-11-16T17:06:53.180Z,97081.66
2022-11-16T17:09:20.237Z,97080.72
2022-11-16T17:11:47.555Z,97078.16
2022-11-16T17:14:14.131Z,97082.41
2022-11-16T17:16:40.790Z,97081.50
2022-11-16T17:19:07.334Z,97077.19
2022-11-16T17:21:33.902Z,97081.50
2022-11-16T17:24:00.410Z,97076.34
2022-11-16T17:26:29.541Z,97079.84
2022-11-16T17:28:57.341Z,97074.69
2022-11-16T17:31:24.801Z,97069.53
2022-11-16T17:33:51.894Z,97073.84
2022-11-16T17:36:19.102Z,97062.75
2022-11-16T17:38:45.682Z,97066.19
2022-11-16T17:41:18.311Z,97068.75
2022-11-16T17:43:46.247Z,97061.88
2022-11-16T17:46:15.794Z,97068.75
2022-11-16T17:48:44.460Z,97066.19
2022-11-16T17:51:12.616Z,97066.25
2022-11-16T17:53:39.939Z,97064.50
2022-11-16T17:56:07.694Z,97071.34
2022-11-16T17:58:34.606Z,97061.94
2022-11-16T18:01:01.456Z,97067.09
2022-11-16T18:03:30.588Z,97057.66
2022-11-16T18:06:09.682Z,97061.00
2022-11-16T18:08:36.898Z,97061.97
2022-11-16T18:11:12.003Z,97064.50
2022-11-16T18:13:38.987Z,97055.84
2022-11-16T18:16:17.146Z,97057.59
2022-11-16T18:18:45.728Z,97059.34
2022-11-16T18:21:20.120Z,97059.34
2022-11-16T18:23:47.899Z,97061.16
2022-11-16T18:26:16.927Z,97060.31
2022-11-16T18:28:51.007Z,97058.66
2022-11-16T18:31:20.526Z,97060.31
2022-11-16T18:33:49.106Z,97052.66
2022-11-16T18:36:16.541Z,97049.16
2022-11-16T18:38:43.111Z,97042.34
2022-11-16T18:41:12.335Z,97044.00
2022-11-16T18:44:00.409Z,97043.19
2022-11-16T18:46:29.080Z,97045.69
2022-11-16T18:48:56.117Z,97047.34
2022-11-16T18:51:24.156Z,97043.94
2022-11-16T18:53:50.940Z,97040.53
2022-11-16T18:56:18.541Z,97037.97
2022-11-16T18:58:53.471Z,97041.34
2022-11-16T19:01:26.377Z,97049.03
2022-11-16T19:03:53.863Z,97043.88
2022-11-16T19:06:21.006Z,97040.38
2022-11-16T19:08:55.709Z,97041.31
2022-11-16T19:11:24.063Z,97034.47
2022-11-16T19:13:55.923Z,97028.41
2022-11-16T19:16:23.679Z,97030.22
2022-11-16T19:18:50.582Z,97031.97
2022-11-16T19:21:21.949Z,97034.53
2022-11-16T19:23:53.288Z,97034.53
2022-11-16T19:26:25.311Z,97038.84
2022-11-16T19:28:53.480Z,97040.69
2022-11-16T19:31:21.517Z,97043.31
2022-11-16T19:34:05.078Z,97039.00
2022-11-16T19:36:32.799Z,97043.28
2022-11-16T19:38:59.443Z,97033.84
2022-11-16T19:41:27.012Z,97037.19
2022-11-16T19:43:59.624Z,97039.78
2022-11-16T19:46:28.052Z,97034.63
2022-11-16T19:48:55.637Z,97037.19
2022-11-16T19:51:28.359Z,97035.53
2022-11-16T19:53:55.952Z,97040.69
2022-11-16T19:56:23.958Z,97036.34
2022-11-16T19:58:50.989Z,97044.16
2022-11-16T20:01:27.652Z,97045.84
2022-11-16T20:03:56.701Z,97045.00
2022-11-16T20:06:26.547Z,97040.69
2022-11-16T20:08:59.038Z,97041.50
2022-11-16T20:11:28.198Z,97040.69
2022-11-16T20:13:56.189Z,97044.94
2022-11-16T20:16:28.076Z,97047.50
2022-11-16T20:18:55.260Z,97048.44
2022-11-16T20:21:25.920Z,97045.84
2022-11-16T20:23:53.429Z,97037.19
2022-11-16T20:26:21.442Z,97036.34
2022-11-16T20:28:51.079Z,97037.19
2022-11-16T20:31:20.436Z,97032.03
2022-11-16T20:33:53.966Z,97032.03
2022-11-16T20:36:22.931Z,97035.53
2022-11-16T20:38:50.326Z,97032.97
2022-11-16T20:41:21.941Z,97028.75
2022-11-16T20:43:51.554Z,97031.41
2022-11-16T20:46:19.090Z,97032.34
2022-11-16T20:48:46.159Z,97027.25
2022-11-16T20:51:15.237Z,97030.66
2022-11-16T20:53:41.826Z,97025.63
2022-11-16T20:56:10.828Z,97021.47
2022-11-16T20:58:38.257Z,97022.28
2022-11-16T21:01:07.994Z,97011.97
2022-11-16T21:03:35.065Z,97016.38
2022-11-16T21:06:01.949Z,97014.09
2022-11-16T21:08:29.848Z,97020.91
2022-11-16T21:10:56.767Z,97017.44
2022-11-16T21:13:42.512Z,97012.44
2022-11-16T21:16:13.711Z,97003.94
2022-11-16T21:18:40.583Z,97009.09
2022-11-16T21:21:11.110Z,97010.00
2022-11-16T21:23:39.621Z,97010.03
2022-11-16T21:26:15.337Z,97007.53
2022-11-16T21:28:44.713Z,97009.38
2022-11-16T21:31:16.681Z,97000.81
2022-11-16T21:33:50.215Z,96999.19
2022-11-16T21:36:19.077Z,97000.13
2022-11-16T21:38:46.121Z,96989.03
2022-11-16T21:41:14.507Z,96989.88
2022-11-16T21:43:41.539Z,96987.38
2022-11-16T21:46:11.695Z,96991.59
2022-11-16T21:48:39.057Z,96987.31
2022-11-16T21:51:11.284Z,96995.03
2022-11-16T21:53:38.489Z,96999.41
2022-11-16T21:56:06.568Z,96990.84
2022-11-16T21:58:33.183Z,96990.09
2022-11-16T22:01:02.189Z,97002.13
2022-11-16T22:03:31.034Z,97001.28
2022-11-16T22:06:18.591Z,96996.13
2022-11-16T22:08:46.080Z,96992.78
2022-11-16T22:11:13.703Z,96990.28
2022-11-16T22:13:40.872Z,96986.91
2022-11-16T22:16:09.544Z,96987.72
2022-11-16T22:18:36.649Z,96985.13
2022-11-16T22:21:03.713Z,96991.06
2022-11-16T22:23:30.768Z,96991.13
2022-11-16T22:26:08.461Z,96992.94
2022-11-16T22:28:35.296Z,96987.78
2022-11-16T22:31:04.247Z,96986.97
2022-11-16T22:33:31.809Z,96982.72
2022-11-16T22:35:59.024Z,96985.28
2022-11-16T22:38:26.293Z,96976.75
2022-11-16T22:40:54.943Z,96977.63
2022-11-16T22:43:24.593Z,96978.47
2022-11-16T22:45:51.413Z,96976.66
2022-11-16T22:48:18.208Z,96972.34
2022-11-16T22:50:44.730Z,96974.16
2022-11-16T22:53:11.353Z,96975.81
2022-11-16T22:55:38.852Z,96979.16
2022-11-16T22:58:05.926Z,96971.44
2022-11-16T23:00:38.937Z,96968.88
2022-11-16T23:03:05.658Z,96971.50
2022-11-16T23:05:32.202Z,96963.88
2022-11-16T23:07:58.745Z,96958.72
2022-11-16T23:10:25.249Z,96960.38
2022-11-16T23:13:10.159Z,96955.22
2022-11-16T23:15:51.595Z,96946.72
2022-11-16T23:18:19.681Z,96950.06
2022-11-16T23:21:12.660Z,96946.56
2022-11-16T23:23:57.510Z,96945.75
2022-11-16T23:26:44.642Z,96938.97
2022-11-16T23:29:11.707Z,96940.72
2022-11-16T23:31:38.542Z,96945.03
2022-11-16T23:34:05.382Z,96945.91
2022-11-16T23:36:31.963Z,96959.72
2022-11-16T23:38:58.520Z,96953.03
2022-11-16T23:41:43.747Z,96954.78
2022-11-16T23:44:10.362Z,96953.94
2022-11-16T23:46:36.944Z,96955.59
2022-11-16T23:49:03.474Z,96948.72
2022-11-16T23:51:29.991Z,96950.44
2022-11-16T23:53:56.665Z,96953.03
2022-11-16T23:56:23.587Z,96953.94
2022-11-16T23:58:50.263Z,96953.94
